Atlanta, GA

3:35 PM EDT on April 18, 2015 (GMT -0400)
Buckhead Forest | | Change Station
CLOSE
Current Station
Personal Weather Station
Location: Atlanta, GA
Elevation: 1010 ft
Nearby Weather Stations

Elev 1010 ft 33.84 °N, 84.38 °W | Updated 18 seconds ago

Overcast
Overcast
71.8 °F
Feels Like 72 °F
N
0.0
Wind Variable Wind from North
Gusts 0.0 mph

Today
High -- | Low -- °F
--% Chance of Precip.
Yesterday
High -- | Low -- °F
Precip. -- in
7:03 AM 8:10 PM
New Moon, 0% visible
Pressure 29.95 in
Visibility 10.0 miles
Clouds Few 2100 ft
Mostly Cloudy 3500 ft
Overcast 4800 ft
Heat Index 72 °F
Dew Point 66 °F
Humidity 82%
Rainfall 0.00 in
Snow Depth Not available.
UV 0.0 out of 12
Pollen 9.90 out of 12
Air Quality Not available.
Flu Activity Sporadic
SPECI KPDK 181919Z VRB04KT 10SM FEW021 BKN035 OVC048 22/18 A2995 RMK AO2 T02220178

More Conditions Fewer Conditions

Pressure 29.95 in
Visibility 10.0 miles
Clouds Few 2100 ft
Mostly Cloudy 3500 ft
Overcast 4800 ft
Heat Index 72 °F
Dew Point 66 °F
Humidity 82%
Rainfall 0.00 in
Snow Depth Not available.
UV 0.0 out of 12
Pollen 9.90 out of 12
Air Quality Not available.
Flu Activity Sporadic
SPECI KPDK 181919Z VRB04KT 10SM FEW021 BKN035 OVC048 22/18 A2995 RMK AO2 T02220178

More Conditions Fewer Conditions

10-Day Weather Forecast

Almanac

Astronomy

Apr. 18, 2015 Rise Set
Actual Time
Civil Twilight
Nautical Twilight
Astronomical Twilight
Moon
Length of Visible Light
Length of Day
Tomorrow will be .
, % of the Moon is Illuminated

Today's Extremes

State Highs State Lows

Community

WunderPhotos

Upload Photos

1,814,502 photos uploaded!

WunderBlogs® & News

Nearby

Air Quality

  Air Quality AQ Index Pollutant
Not available.

Snow Depth

Station Depth Elevation

Earthquake Activity

City Distance Mag. Time & Date
Minimum magnitude displayed is 2.5.

Coastal Water Temperatures

Place Temperature

Stations

Nearby Weather Stations

Station Location Temp. Windchill Dew Point Humidity Wind Precip. Elev Updated Type